Time;durP1;ratioP1;P1;durP2;ratioP2;P2;SDS_P1;SDS_P2;PMS_P1;PMS_P2;Temp;Humidity;BMP_temperature;BMP_pressure;BME280_temperature;BME280_humidity;BME280_pressure;Samples;Min_cycle;Max_cycle;Signal;HPM_P1;HPM_P2
2022/03/20 00:00:54;;;;;;;28.03;14.77;;;;;;;;;;5004440;28;20955;-35
2022/03/20 00:03:20;;;;;;;21.93;13.33;;;;;;;;;;5026204;28;20951;-35
2022/03/20 00:05:47;;;;;;;27.27;14.93;;;;;;;;;;5022621;28;20882;-35
2022/03/20 00:08:14;;;;;;;24.77;14.47;;;;;;;;;;5022136;28;20429;-35
2022/03/20 00:10:45;;;;;;;23.60;14.27;;;;;;;;;;5026319;28;20421;-35
2022/03/20 00:13:11;;;;;;;23.40;14.67;;;;;;;;;;5024569;28;20853;-35
2022/03/20 00:15:42;;;;;;;23.93;14.33;;;;;;;;;;5020528;28;20642;-35
2022/03/20 00:18:09;;;;;;;20.97;14.07;;;;;;;;;;5026768;28;20509;-36
2022/03/20 00:20:36;;;;;;;24.63;14.87;;;;;;;;;;5029899;28;21286;-35
2022/03/20 00:23:06;;;;;;;26.50;15.63;;;;;;;;;;5025910;28;20426;-35
2022/03/20 00:25:34;;;;;;;26.53;15.07;;;;;;;;;;5027016;28;20637;-35
2022/03/20 00:28:00;;;;;;;22.83;15.00;;;;;;;;;;5030491;28;20421;-35
2022/03/20 00:30:26;;;;;;;24.07;14.80;;;;;;;;;;5025760;28;20459;-35
2022/03/20 00:32:52;;;;;;;27.40;15.23;;;;;;;;;;5027488;28;20807;-35
2022/03/20 00:35:19;;;;;;;21.43;14.37;;;;;;;;;;5028273;28;20929;-35
2022/03/20 00:37:45;;;;;;;25.40;15.00;;;;;;;;;;5027960;28;20456;-35
2022/03/20 00:40:11;;;;;;;22.13;14.40;;;;;;;;;;5027839;28;20512;-35
2022/03/20 00:42:37;;;;;;;25.63;15.53;;;;;;;;;;5002851;28;20445;-35
2022/03/20 00:45:04;;;;;;;24.40;15.20;;;;;;;;;;5027693;28;20740;-35
2022/03/20 00:47:31;;;;;;;25.67;15.07;;;;;;;;;;5025926;28;20955;-35
2022/03/20 00:49:57;;;;;;;27.00;15.60;;;;;;;;;;5024713;28;20885;-35
2022/03/20 00:52:23;;;;;;;24.27;15.10;;;;;;;;;;5028283;28;20836;-35
2022/03/20 00:54:49;;;;;;;24.33;16.20;;;;;;;;;;5028425;28;20543;-35
2022/03/20 00:57:15;;;;;;;23.67;16.60;;;;;;;;;;5028731;28;20421;-35
2022/03/20 00:59:41;;;;;;;25.53;15.43;;;;;;;;;;5028369;28;20578;-35
2022/03/20 01:02:08;;;;;;;25.83;16.53;;;;;;;;;;5027823;28;20561;-36
2022/03/20 01:04:34;;;;;;;24.93;15.87;;;;;;;;;;5026924;28;20956;-35
2022/03/20 01:07:01;;;;;;;29.03;16.37;;;;;;;;;;5028508;28;21463;-35
2022/03/20 01:09:28;;;;;;;28.90;16.70;;;;;;;;;;5026463;28;21454;-36
2022/03/20 01:11:55;;;;;;;33.33;18.40;;;;;;;;;;5027649;28;20976;-35
2022/03/20 01:14:21;;;;;;;27.67;17.43;;;;;;;;;;5029021;28;20474;-35
2022/03/20 01:16:48;;;;;;;26.80;16.53;;;;;;;;;;5029193;28;21063;-35
2022/03/20 01:19:14;;;;;;;27.07;16.87;;;;;;;;;;5028258;28;20416;-35
2022/03/20 01:21:41;;;;;;;28.40;17.40;;;;;;;;;;5025889;28;20849;-35
2022/03/20 01:24:08;;;;;;;28.13;18.07;;;;;;;;;;5029761;28;20409;-35
2022/03/20 01:26:34;;;;;;;24.00;15.97;;;;;;;;;;5030781;28;20436;-36
2022/03/20 01:29:00;;;;;;;26.00;15.43;;;;;;;;;;5028513;28;21031;-35
2022/03/20 01:31:28;;;;;;;22.63;15.23;;;;;;;;;;5029779;28;20856;-36
2022/03/20 01:33:54;;;;;;;23.90;16.73;;;;;;;;;;5030325;28;21013;-35
2022/03/20 01:36:21;;;;;;;26.47;16.87;;;;;;;;;;5029009;28;21271;-36
2022/03/20 01:38:47;;;;;;;27.13;15.30;;;;;;;;;;5029091;28;20449;-35
2022/03/20 01:41:13;;;;;;;25.47;16.10;;;;;;;;;;5027239;28;21020;-35
2022/03/20 01:43:48;;;;;;;24.90;16.10;;;;;;;;;;5029515;28;21110;-35
2022/03/20 01:46:14;;;;;;;26.37;15.20;;;;;;;;;;5030189;28;20648;-35
2022/03/20 01:48:40;;;;;;;23.83;15.40;;;;;;;;;;5028182;28;20420;-35
2022/03/20 01:51:06;;;;;;;26.57;16.70;;;;;;;;;;5029262;28;21200;-35
2022/03/20 01:53:33;;;;;;;27.73;16.50;;;;;;;;;;5027400;28;20456;-36
2022/03/20 01:55:59;;;;;;;23.57;15.97;;;;;;;;;;5026623;28;20968;-35
2022/03/20 01:58:25;;;;;;;22.93;16.17;;;;;;;;;;5027951;28;20992;-35
2022/03/20 02:00:51;;;;;;;25.77;16.30;;;;;;;;;;5011400;28;20432;-36
2022/03/20 02:03:19;;;;;;;25.37;16.67;;;;;;;;;;5028602;28;20740;-35
2022/03/20 02:05:45;;;;;;;27.40;15.77;;;;;;;;;;5024088;28;20438;-35
2022/03/20 02:08:15;;;;;;;26.40;17.33;;;;;;;;;;5027131;28;20818;-36
2022/03/20 02:10:43;;;;;;;26.87;16.77;;;;;;;;;;5028799;28;20516;-35
2022/03/20 02:13:09;;;;;;;24.80;16.90;;;;;;;;;;5025480;28;20450;-35
2022/03/20 02:15:39;;;;;;;25.83;16.87;;;;;;;;;;5026440;28;20959;-35
2022/03/20 02:18:07;;;;;;;30.43;17.77;;;;;;;;;;5030344;28;20526;-35
2022/03/20 02:20:33;;;;;;;28.87;17.97;;;;;;;;;;5007638;28;20910;-35
2022/03/20 02:23:00;;;;;;;30.50;19.80;;;;;;;;;;5025153;28;20931;-35
2022/03/20 02:25:26;;;;;;;33.13;21.07;;;;;;;;;;5025294;28;20498;-35
2022/03/20 02:27:53;;;;;;;33.93;21.30;;;;;;;;;;5030432;28;20414;-35
2022/03/20 02:30:20;;;;;;;33.23;21.57;;;;;;;;;;5026824;28;20406;-35
2022/03/20 02:32:48;;;;;;;29.80;19.37;;;;;;;;;;5025852;28;20520;-35
2022/03/20 02:35:15;;;;;;;33.70;21.60;;;;;;;;;;5025572;28;20444;-35
2022/03/20 02:37:48;;;;;;;33.40;21.73;;;;;;;;;;5026774;28;20412;-35
2022/03/20 02:40:15;;;;;;;34.03;21.73;;;;;;;;;;5025609;28;20819;-35
2022/03/20 02:42:42;;;;;;;33.63;20.33;;;;;;;;;;5022549;28;20710;-35
2022/03/20 02:45:10;;;;;;;31.57;20.80;;;;;;;;;;5024864;28;20937;-35
2022/03/20 02:47:41;;;;;;;30.93;19.67;;;;;;;;;;5024982;28;20590;-35
2022/03/20 02:50:17;;;;;;;30.13;18.97;;;;;;;;;;5024257;28;20414;-35
2022/03/20 02:52:51;;;;;;;29.03;18.43;;;;;;;;;;5025002;28;20429;-35
2022/03/20 02:55:22;;;;;;;28.93;18.27;;;;;;;;;;5023339;28;20618;-35
2022/03/20 02:57:48;;;;;;;29.67;18.17;;;;;;;;;;5022313;28;21120;-35
2022/03/20 03:00:17;;;;;;;28.80;18.23;;;;;;;;;;5024432;28;20413;-35
2022/03/20 03:02:45;;;;;;;28.40;18.60;;;;;;;;;;5024076;28;20430;-35
2022/03/20 03:05:12;;;;;;;27.67;18.20;;;;;;;;;;5024924;28;20777;-36
2022/03/20 03:13:09;;;;;;;29.50;18.67;;;;;;;;;;5027022;28;20778;-35
2022/03/20 03:15:35;;;;;;;32.47;19.43;;;;;;;;;;5022014;28;20664;-35
2022/03/20 03:18:01;;;;;;;32.97;19.40;;;;;;;;;;5022889;28;20708;-35
2022/03/20 03:20:28;;;;;;;32.57;19.03;;;;;;;;;;5023316;28;20553;-35
2022/03/20 03:22:54;;;;;;;30.53;19.47;;;;;;;;;;5003496;28;20441;-35
2022/03/20 03:25:21;;;;;;;34.03;20.03;;;;;;;;;;5002770;28;20872;-35
2022/03/20 03:27:47;;;;;;;29.80;19.13;;;;;;;;;;5026017;28;20989;-35
2022/03/20 03:30:13;;;;;;;30.17;19.37;;;;;;;;;;5020440;28;20961;-35
2022/03/20 03:32:40;;;;;;;27.90;19.03;;;;;;;;;;5026054;28;20740;-35
2022/03/20 03:37:52;;;;;;;28.53;18.47;;;;;;;;;;5025350;28;20412;-35
2022/03/20 03:40:18;;;;;;;31.37;19.27;;;;;;;;;;5025637;28;21021;-35
2022/03/20 03:42:44;;;;;;;32.13;19.67;;;;;;;;;;5025112;28;21296;-35
2022/03/20 03:45:10;;;;;;;28.50;19.83;;;;;;;;;;5021568;28;20746;-35
2022/03/20 03:47:37;;;;;;;33.60;20.20;;;;;;;;;;5026154;28;20424;-35
2022/03/20 03:50:03;;;;;;;34.03;20.97;;;;;;;;;;5024605;28;20548;-35
2022/03/20 03:52:29;;;;;;;32.97;21.50;;;;;;;;;;5021783;28;20767;-35
2022/03/20 03:54:55;;;;;;;35.63;22.50;;;;;;;;;;5022823;28;20863;-35
2022/03/20 03:57:21;;;;;;;33.23;21.27;;;;;;;;;;5024876;28;20909;-35
2022/03/20 03:59:48;;;;;;;36.30;21.47;;;;;;;;;;5024510;28;20433;-35
2022/03/20 04:02:16;;;;;;;33.77;20.57;;;;;;;;;;5023503;28;20418;-35
2022/03/20 04:04:42;;;;;;;31.17;20.23;;;;;;;;;;5026396;28;20685;-36
2022/03/20 04:07:09;;;;;;;34.03;21.77;;;;;;;;;;5028400;28;20775;-35
2022/03/20 04:09:35;;;;;;;35.13;21.03;;;;;;;;;;5028503;28;20420;-36
2022/03/20 04:12:03;;;;;;;34.03;20.57;;;;;;;;;;5022709;28;20461;-36
2022/03/20 04:14:29;;;;;;;39.33;22.67;;;;;;;;;;5025544;28;20424;-35
2022/03/20 04:16:55;;;;;;;37.40;22.60;;;;;;;;;;5028256;28;20449;-36
2022/03/20 04:19:22;;;;;;;33.13;21.50;;;;;;;;;;5025675;28;21093;-35
2022/03/20 04:21:48;;;;;;;39.27;22.17;;;;;;;;;;5024024;28;20973;-35
2022/03/20 04:24:14;;;;;;;38.47;24.20;;;;;;;;;;5027712;28;20519;-35
2022/03/20 04:26:40;;;;;;;35.20;22.80;;;;;;;;;;5026952;28;20406;-36
2022/03/20 04:29:07;;;;;;;39.90;23.93;;;;;;;;;;5025666;28;20422;-36
2022/03/20 04:31:33;;;;;;;37.80;24.10;;;;;;;;;;5024915;28;20531;-36
2022/03/20 04:33:59;;;;;;;37.90;23.67;;;;;;;;;;5027515;28;20493;-36
2022/03/20 04:36:27;;;;;;;39.60;24.50;;;;;;;;;;5025303;28;20448;-36
2022/03/20 04:38:55;;;;;;;41.97;24.30;;;;;;;;;;5022838;28;20517;-36
2022/03/20 04:41:21;;;;;;;40.30;24.13;;;;;;;;;;5024835;28;20529;-35
2022/03/20 04:43:48;;;;;;;38.73;23.87;;;;;;;;;;5027205;28;20901;-36
2022/03/20 04:46:14;;;;;;;41.47;23.83;;;;;;;;;;5027396;28;20417;-36
2022/03/20 04:59:40;;;;;;;39.93;23.17;;;;;;;;;;5026189;28;21009;-36
2022/03/20 05:02:07;;;;;;;38.57;24.30;;;;;;;;;;5027861;28;20832;-36
2022/03/20 05:04:33;;;;;;;37.10;24.13;;;;;;;;;;5028519;28;20409;-35
2022/03/20 05:06:59;;;;;;;36.27;23.90;;;;;;;;;;5027692;28;20975;-35
2022/03/20 05:14:59;;;;;;;37.60;23.60;;;;;;;;;;5027762;28;20424;-36
2022/03/20 05:17:25;;;;;;;37.67;24.00;;;;;;;;;;5025121;28;20452;-36
2022/03/20 05:19:51;;;;;;;37.63;24.37;;;;;;;;;;5026244;28;20660;-37
2022/03/20 05:22:17;;;;;;;40.00;25.20;;;;;;;;;;5029442;28;20436;-35
2022/03/20 05:24:44;;;;;;;43.10;24.87;;;;;;;;;;5026212;28;20465;-36
2022/03/20 05:27:10;;;;;;;42.13;24.97;;;;;;;;;;5027680;28;20647;-35
2022/03/20 05:29:38;;;;;;;43.03;26.93;;;;;;;;;;5030665;28;21190;-37
2022/03/20 05:32:05;;;;;;;44.07;24.80;;;;;;;;;;5044068;28;20595;-36
2022/03/20 05:34:33;;;;;;;41.37;25.93;;;;;;;;;;5027811;28;20520;-37
2022/03/20 05:37:02;;;;;;;40.20;25.73;;;;;;;;;;5025930;28;20443;-36
2022/03/20 05:39:28;;;;;;;38.73;25.30;;;;;;;;;;5030038;28;20402;-36
2022/03/20 05:41:54;;;;;;;39.73;25.80;;;;;;;;;;5032222;28;20590;-37
2022/03/20 05:44:21;;;;;;;40.50;26.07;;;;;;;;;;5028070;28;20487;-37
2022/03/20 05:46:51;;;;;;;39.87;25.33;;;;;;;;;;5028341;28;20849;-37
2022/03/20 05:49:18;;;;;;;43.00;25.20;;;;;;;;;;5029694;28;20456;-36
2022/03/20 05:51:46;;;;;;;40.83;24.90;;;;;;;;;;5029972;28;20892;-36
2022/03/20 05:54:13;;;;;;;41.73;25.87;;;;;;;;;;5028775;28;20413;-37
2022/03/20 05:59:24;;;;;;;42.63;26.30;;;;;;;;;;5033052;28;20444;-37
2022/03/20 06:01:51;;;;;;;42.33;27.40;;;;;;;;;;5030681;28;21012;-35
2022/03/20 06:04:17;;;;;;;43.13;26.43;;;;;;;;;;5028780;28;21275;-36
2022/03/20 06:06:44;;;;;;;41.87;26.00;;;;;;;;;;5029676;28;20977;-35
2022/03/20 06:09:10;;;;;;;48.90;27.30;;;;;;;;;;5030101;28;20934;-36
2022/03/20 06:11:36;;;;;;;41.23;26.97;;;;;;;;;;5030645;28;20425;-36
2022/03/20 06:14:06;;;;;;;47.27;26.97;;;;;;;;;;5009643;28;20441;-36
2022/03/20 06:16:34;;;;;;;44.87;27.80;;;;;;;;;;5026058;28;20468;-35
2022/03/20 06:19:00;;;;;;;43.90;26.17;;;;;;;;;;5010286;28;20902;-36
2022/03/20 06:21:26;;;;;;;44.23;27.20;;;;;;;;;;5026957;28;20460;-35
2022/03/20 06:23:56;;;;;;;44.93;27.63;;;;;;;;;;5026444;28;20618;-36
2022/03/20 06:26:23;;;;;;;42.13;26.17;;;;;;;;;;5027051;28;20418;-36
2022/03/20 06:28:49;;;;;;;43.63;27.30;;;;;;;;;;5028650;28;20417;-36
2022/03/20 06:31:16;;;;;;;40.60;26.67;;;;;;;;;;5027650;28;20828;-36
2022/03/20 06:33:43;;;;;;;45.80;26.87;;;;;;;;;;5024208;28;20517;-36
2022/03/20 06:36:10;;;;;;;40.63;26.77;;;;;;;;;;5008931;28;20818;-36
2022/03/20 06:38:37;;;;;;;43.57;26.87;;;;;;;;;;5031052;28;20445;-36
2022/03/20 06:41:04;;;;;;;41.93;26.53;;;;;;;;;;5027244;28;20983;-36
2022/03/20 06:43:30;;;;;;;41.87;26.50;;;;;;;;;;5022436;28;20410;-36
2022/03/20 06:45:56;;;;;;;41.23;26.93;;;;;;;;;;5027382;28;20735;-36
2022/03/20 06:48:24;;;;;;;40.83;26.50;;;;;;;;;;5027545;28;21282;-36
2022/03/20 06:50:50;;;;;;;43.13;28.10;;;;;;;;;;5026381;28;20417;-36
2022/03/20 06:53:18;;;;;;;47.87;28.50;;;;;;;;;;5024997;28;20523;-36
2022/03/20 06:55:44;;;;;;;51.00;29.53;;;;;;;;;;5030007;28;21110;-36
2022/03/20 06:58:11;;;;;;;47.00;29.70;;;;;;;;;;5028589;28;20412;-36
2022/03/20 07:00:38;;;;;;;48.17;29.93;;;;;;;;;;5021737;28;20748;-36
2022/03/20 07:03:06;;;;;;;47.20;29.67;;;;;;;;;;5024415;28;20845;-36
2022/03/20 07:05:32;;;;;;;43.07;27.77;;;;;;;;;;5028791;28;21021;-36
2022/03/20 07:07:59;;;;;;;50.73;30.77;;;;;;;;;;5024912;28;21076;-36
2022/03/20 07:10:26;;;;;;;46.37;29.37;;;;;;;;;;5024572;28;20434;-36
2022/03/20 07:13:48;;;;;;;45.57;29.03;;;;;;;;;;5025888;28;20906;-36
2022/03/20 07:15:42;;;;;;;44.30;29.70;;;;;;;;;;5027180;28;21150;-36
2022/03/20 07:18:12;;;;;;;43.37;28.17;;;;;;;;;;5027907;28;20413;-36
2022/03/20 07:20:38;;;;;;;48.93;29.37;;;;;;;;;;5023503;28;20410;-36
2022/03/20 07:23:06;;;;;;;45.00;29.60;;;;;;;;;;5022790;28;20430;-36
2022/03/20 07:31:02;;;;;;;44.33;28.53;;;;;;;;;;5025061;28;20998;-36
2022/03/20 07:33:28;;;;;;;44.70;28.70;;;;;;;;;;5024336;28;20551;-36
2022/03/20 07:35:54;;;;;;;44.30;29.20;;;;;;;;;;5024248;28;20939;-36
2022/03/20 07:38:20;;;;;;;49.67;28.87;;;;;;;;;;5025180;28;20665;-37
2022/03/20 07:40:46;;;;;;;40.07;26.57;;;;;;;;;;5028574;28;20413;-36
2022/03/20 07:43:12;;;;;;;44.33;27.97;;;;;;;;;;5026779;28;20418;-36
2022/03/20 07:45:38;;;;;;;41.77;28.10;;;;;;;;;;5024486;28;20417;-36
2022/03/20 07:48:04;;;;;;;44.40;28.47;;;;;;;;;;5028213;28;20421;-36
2022/03/20 07:50:30;;;;;;;41.07;27.07;;;;;;;;;;5027058;28;20424;-36
2022/03/20 07:53:00;;;;;;;41.47;26.63;;;;;;;;;;5024469;28;20548;-36
2022/03/20 07:55:28;;;;;;;43.60;27.07;;;;;;;;;;5023273;28;20556;-36
2022/03/20 07:57:55;;;;;;;42.70;26.77;;;;;;;;;;5026709;28;20829;-36
2022/03/20 08:00:22;;;;;;;41.93;27.47;;;;;;;;;;5028506;28;20876;-36
2022/03/20 08:02:48;;;;;;;44.40;28.03;;;;;;;;;;5027012;28;20867;-36
2022/03/20 08:05:14;;;;;;;36.77;26.33;;;;;;;;;;5024245;28;20518;-36
2022/03/20 08:07:40;;;;;;;39.20;26.63;;;;;;;;;;5028828;28;20980;-36
2022/03/20 08:10:10;;;;;;;43.37;27.10;;;;;;;;;;5027425;28;20509;-37
2022/03/20 08:12:36;;;;;;;38.13;26.23;;;;;;;;;;5027937;28;21344;-37
2022/03/20 08:15:03;;;;;;;40.77;26.93;;;;;;;;;;5006452;28;20882;-37
2022/03/20 08:17:29;;;;;;;42.17;26.90;;;;;;;;;;5024951;28;20478;-37
2022/03/20 08:19:56;;;;;;;40.50;27.20;;;;;;;;;;5025781;28;21379;-37
2022/03/20 08:22:22;;;;;;;38.43;26.13;;;;;;;;;;5024914;28;20624;-37
2022/03/20 08:24:48;;;;;;;38.83;25.97;;;;;;;;;;5024347;28;20525;-37
2022/03/20 08:27:16;;;;;;;41.43;27.40;;;;;;;;;;5029022;28;20417;-37
2022/03/20 08:29:42;;;;;;;39.53;26.70;;;;;;;;;;5029609;28;20584;-37
2022/03/20 08:32:08;;;;;;;39.20;26.87;;;;;;;;;;5024527;28;20393;-37
2022/03/20 08:34:35;;;;;;;38.27;25.80;;;;;;;;;;5024718;28;20196;-37
2022/03/20 08:37:01;;;;;;;34.83;25.83;;;;;;;;;;5025983;28;20664;-36
2022/03/20 08:39:27;;;;;;;40.30;26.50;;;;;;;;;;5026777;28;20794;-37
2022/03/20 08:41:53;;;;;;;38.30;27.20;;;;;;;;;;5025320;28;20279;-37
2022/03/20 08:44:19;;;;;;;40.83;27.70;;;;;;;;;;5028151;28;20175;-37
2022/03/20 08:46:46;;;;;;;40.83;26.03;;;;;;;;;;5028267;28;20183;-37
2022/03/20 08:49:12;;;;;;;38.23;27.07;;;;;;;;;;5028996;28;20175;-37
2022/03/20 08:51:39;;;;;;;35.67;25.83;;;;;;;;;;5038744;28;20187;-39
2022/03/20 08:54:06;;;;;;;41.47;28.30;;;;;;;;;;5025739;28;20196;-36
2022/03/20 08:56:33;;;;;;;37.57;25.83;;;;;;;;;;5006894;28;20605;-36
2022/03/20 08:58:59;;;;;;;36.53;26.07;;;;;;;;;;5024683;28;20882;-36
2022/03/20 09:01:26;;;;;;;35.50;25.03;;;;;;;;;;5027098;28;20222;-37
2022/03/20 09:03:53;;;;;;;36.57;25.93;;;;;;;;;;5026652;28;20490;-38
2022/03/20 09:06:20;;;;;;;40.20;26.70;;;;;;;;;;5016719;28;20652;-38
2022/03/20 09:08:46;;;;;;;34.00;25.67;;;;;;;;;;5021519;28;20415;-37
2022/03/20 09:11:12;;;;;;;37.77;26.80;;;;;;;;;;5025698;28;20183;-37
2022/03/20 09:13:39;;;;;;;37.73;26.23;;;;;;;;;;5024514;28;20536;-37
2022/03/20 09:18:59;;;;;;;32.90;23.90;;;;;;;;;;5027056;28;20207;-37
2022/03/20 09:21:29;;;;;;;34.87;24.97;;;;;;;;;;5021559;28;20984;-38
2022/03/20 09:23:55;;;;;;;31.73;22.83;;;;;;;;;;5007097;28;20175;-38
2022/03/20 09:26:21;;;;;;;33.57;24.70;;;;;;;;;;5025446;28;20175;-37
2022/03/20 09:28:47;;;;;;;31.70;23.03;;;;;;;;;;5029453;28;20179;-38
2022/03/20 09:31:15;;;;;;;36.50;24.73;;;;;;;;;;5025735;28;20294;-37
2022/03/20 09:33:41;;;;;;;35.37;24.63;;;;;;;;;;5026316;28;20195;-38
2022/03/20 09:36:07;;;;;;;41.27;26.00;;;;;;;;;;5027191;28;20660;-37
2022/03/20 09:38:34;;;;;;;32.83;24.20;;;;;;;;;;5027121;28;20458;-37
2022/03/20 09:41:03;;;;;;;31.00;23.63;;;;;;;;;;5025782;28;20678;-38
2022/03/20 09:43:31;;;;;;;32.43;24.60;;;;;;;;;;5027636;28;20437;-38
2022/03/20 09:45:57;;;;;;;33.10;24.20;;;;;;;;;;5025344;28;20179;-38
2022/03/20 09:48:23;;;;;;;33.83;25.50;;;;;;;;;;5022519;28;20179;-37
2022/03/20 09:50:50;;;;;;;37.77;24.87;;;;;;;;;;5024605;28;20179;-39
2022/03/20 09:53:16;;;;;;;38.03;26.20;;;;;;;;;;5024511;28;20187;-36
2022/03/20 09:55:43;;;;;;;35.57;25.03;;;;;;;;;;5025285;28;20187;-36
2022/03/20 09:58:10;;;;;;;29.57;22.70;;;;;;;;;;5019726;28;20700;-36
2022/03/20 10:00:36;;;;;;;35.17;24.13;;;;;;;;;;5020980;28;20186;-36
2022/03/20 10:03:15;;;;;;;32.47;23.53;;;;;;;;;;5022940;28;20182;-36
2022/03/20 10:05:41;;;;;;;32.83;23.17;;;;;;;;;;5027973;28;20192;-37
2022/03/20 10:08:17;;;;;;;34.50;23.87;;;;;;;;;;5021594;28;20190;-37
2022/03/20 10:10:43;;;;;;;32.73;23.27;;;;;;;;;;5024450;28;20620;-37
2022/03/20 10:13:13;;;;;;;32.07;22.23;;;;;;;;;;5025082;28;21156;-37
2022/03/20 10:15:43;;;;;;;30.40;22.17;;;;;;;;;;5023276;28;20533;-37
2022/03/20 10:18:20;;;;;;;33.07;21.80;;;;;;;;;;5021434;28;20182;-36
2022/03/20 10:20:48;;;;;;;34.87;23.77;;;;;;;;;;5019653;28;20186;-37
2022/03/20 10:23:36;;;;;;;30.97;23.07;;;;;;;;;;5025618;28;20600;-36
2022/03/20 10:26:21;;;;;;;28.93;21.30;;;;;;;;;;5024137;28;21093;-37
2022/03/20 10:28:49;;;;;;;31.00;22.13;;;;;;;;;;5024850;28;20174;-37
2022/03/20 10:31:20;;;;;;;32.00;21.77;;;;;;;;;;5025626;28;20241;-37
2022/03/20 10:34:00;;;;;;;29.50;20.57;;;;;;;;;;5021219;28;20191;-36
2022/03/20 10:36:26;;;;;;;26.60;18.50;;;;;;;;;;5019640;28;20493;-37
2022/03/20 10:38:52;;;;;;;27.00;19.37;;;;;;;;;;5023780;28;20167;-37
2022/03/20 10:41:26;;;;;;;25.40;18.83;;;;;;;;;;5025489;28;20164;-36
2022/03/20 10:43:53;;;;;;;25.23;18.20;;;;;;;;;;5024733;28;20409;-37
2022/03/20 10:46:20;;;;;;;30.07;18.90;;;;;;;;;;5023028;28;20176;-37
2022/03/20 10:48:48;;;;;;;26.80;19.00;;;;;;;;;;5027078;28;20178;-36
2022/03/20 10:51:14;;;;;;;25.97;19.27;;;;;;;;;;5021521;28;20164;-36
2022/03/20 10:53:58;;;;;;;26.73;19.47;;;;;;;;;;5018905;28;20210;-36
2022/03/20 10:56:24;;;;;;;26.97;19.97;;;;;;;;;;5003890;28;20592;-36
2022/03/20 10:58:50;;;;;;;25.17;19.63;;;;;;;;;;5022445;28;20721;-36
2022/03/20 11:01:17;;;;;;;30.63;20.80;;;;;;;;;;5021507;28;20203;-37
2022/03/20 11:03:43;;;;;;;29.03;19.27;;;;;;;;;;5022990;28;20332;-36
2022/03/20 11:06:10;;;;;;;28.83;21.20;;;;;;;;;;4996725;28;20174;-36
2022/03/20 11:08:37;;;;;;;26.60;20.33;;;;;;;;;;5022893;28;20303;-36
2022/03/20 11:11:03;;;;;;;31.23;21.20;;;;;;;;;;5026284;28;20687;-35
2022/03/20 11:13:30;;;;;;;26.83;19.60;;;;;;;;;;5023747;28;20616;-36
2022/03/20 11:15:59;;;;;;;27.77;20.23;;;;;;;;;;5019572;28;20261;-36
2022/03/20 11:18:26;;;;;;;28.43;21.20;;;;;;;;;;5005173;28;20201;-35
2022/03/20 11:20:53;;;;;;;31.93;19.90;;;;;;;;;;5019532;28;20176;-36
2022/03/20 11:23:19;;;;;;;30.63;20.80;;;;;;;;;;5018451;28;20295;-36
2022/03/20 11:25:46;;;;;;;30.77;20.20;;;;;;;;;;5016349;28;20619;-36
2022/03/20 11:28:13;;;;;;;27.40;20.87;;;;;;;;;;5020102;28;20812;-36
2022/03/20 11:30:39;;;;;;;27.63;20.73;;;;;;;;;;5022403;28;20881;-35
2022/03/20 11:33:09;;;;;;;28.03;21.40;;;;;;;;;;5012984;28;20171;-36
2022/03/20 11:35:36;;;;;;;28.03;21.43;;;;;;;;;;5009210;28;20292;-36
2022/03/20 11:38:31;;;;;;;25.30;20.43;;;;;;;;;;5022744;28;20187;-36
2022/03/20 11:41:10;;;;;;;29.17;20.83;;;;;;;;;;5003247;28;20378;-36
2022/03/20 11:43:41;;;;;;;29.77;22.07;;;;;;;;;;5014865;28;20245;-37
2022/03/20 11:46:17;;;;;;;31.97;22.07;;;;;;;;;;5025946;28;20269;-35
2022/03/20 11:48:45;;;;;;;27.13;20.37;;;;;;;;;;5018776;28;20301;-36
2022/03/20 11:51:11;;;;;;;28.23;21.60;;;;;;;;;;5016433;28;20626;-36
2022/03/20 11:53:40;;;;;;;27.83;21.50;;;;;;;;;;4992170;28;20234;-35
2022/03/20 11:56:07;;;;;;;26.80;21.20;;;;;;;;;;5023863;28;20202;-36
2022/03/20 11:58:34;;;;;;;29.20;21.13;;;;;;;;;;5022309;28;21803;-36
2022/03/20 12:01:07;;;;;;;27.50;20.77;;;;;;;;;;5004705;28;20658;-36
2022/03/20 12:03:55;;;;;;;24.87;19.67;;;;;;;;;;5026840;28;20722;-36
2022/03/20 12:06:27;;;;;;;28.17;19.90;;;;;;;;;;5022753;28;20215;-36
2022/03/20 12:09:22;;;;;;;26.80;19.00;;;;;;;;;;5025638;28;20578;-36
2022/03/20 12:11:48;;;;;;;24.40;18.87;;;;;;;;;;4952721;28;20711;-35
2022/03/20 12:14:17;;;;;;;27.67;19.97;;;;;;;;;;5021203;28;20489;-35
2022/03/20 12:16:43;;;;;;;24.93;19.03;;;;;;;;;;5026255;28;20187;-35
2022/03/20 12:19:11;;;;;;;26.53;19.47;;;;;;;;;;5027076;28;20167;-35
2022/03/20 12:21:55;;;;;;;26.23;18.50;;;;;;;;;;5025045;28;20193;-35
2022/03/20 12:24:57;;;;;;;24.83;17.80;;;;;;;;;;5023084;28;20286;-36
2022/03/20 12:27:23;;;;;;;25.90;17.83;;;;;;;;;;5025527;28;20171;-36
2022/03/20 12:29:52;;;;;;;26.23;16.93;;;;;;;;;;5029131;28;20578;-36
2022/03/20 12:32:22;;;;;;;22.70;17.00;;;;;;;;;;5025899;28;20558;-35
2022/03/20 12:35:00;;;;;;;23.93;17.17;;;;;;;;;;5016166;28;21907;-36
2022/03/20 12:37:29;;;;;;;23.80;17.20;;;;;;;;;;5014165;28;20939;-35
2022/03/20 12:39:56;;;;;;;22.03;17.00;;;;;;;;;;5025469;28;20186;-35
2022/03/20 12:42:23;;;;;;;23.20;17.67;;;;;;;;;;5026355;28;20202;-36
2022/03/20 12:44:50;;;;;;;21.53;16.87;;;;;;;;;;5026413;28;20294;-36
2022/03/20 12:47:17;;;;;;;23.73;16.70;;;;;;;;;;5029438;28;20176;-36
2022/03/20 12:49:44;;;;;;;24.00;17.20;;;;;;;;;;5010697;28;20720;-36
2022/03/20 12:52:10;;;;;;;22.70;16.60;;;;;;;;;;5020848;28;20860;-36
2022/03/20 12:54:37;;;;;;;24.90;18.03;;;;;;;;;;5031131;28;20198;-35
2022/03/20 12:57:04;;;;;;;23.10;16.30;;;;;;;;;;5027026;28;20194;-36
2022/03/20 12:59:30;;;;;;;25.67;16.83;;;;;;;;;;5002937;28;20200;-36
2022/03/20 13:01:57;;;;;;;22.17;16.00;;;;;;;;;;5026687;28;21152;-36
2022/03/20 13:04:24;;;;;;;20.17;15.67;;;;;;;;;;5023862;28;20774;-36
2022/03/20 13:06:51;;;;;;;21.77;16.27;;;;;;;;;;5032601;28;20179;-36
2022/03/20 13:09:17;;;;;;;23.03;16.87;;;;;;;;;;5026320;28;21013;-35
2022/03/20 13:11:53;;;;;;;21.53;15.93;;;;;;;;;;5030064;28;20190;-36
2022/03/20 13:14:19;;;;;;;19.97;15.93;;;;;;;;;;5030991;28;20260;-36
2022/03/20 13:16:49;;;;;;;22.53;15.27;;;;;;;;;;5032667;28;20203;-36
2022/03/20 13:19:37;;;;;;;22.13;15.83;;;;;;;;;;5030390;28;20171;-36
2022/03/20 13:22:04;;;;;;;21.10;16.10;;;;;;;;;;5032424;28;20186;-36
2022/03/20 13:24:34;;;;;;;21.93;15.23;;;;;;;;;;5031012;28;20171;-36
2022/03/20 13:27:02;;;;;;;22.57;14.37;;;;;;;;;;5031038;28;20178;-36
2022/03/20 13:29:28;;;;;;;19.07;13.60;;;;;;;;;;5023014;28;20210;-36
2022/03/20 13:32:00;;;;;;;18.77;14.20;;;;;;;;;;5009604;28;20171;-35
2022/03/20 13:34:26;;;;;;;19.63;14.07;;;;;;;;;;5023830;28;20190;-35
2022/03/20 13:36:53;;;;;;;17.47;13.67;;;;;;;;;;4998108;28;20321;-36
2022/03/20 13:39:21;;;;;;;19.63;14.43;;;;;;;;;;5020211;28;20969;-36
2022/03/20 13:41:47;;;;;;;19.17;14.07;;;;;;;;;;5029483;28;23347;-35
2022/03/20 13:44:15;;;;;;;21.27;14.53;;;;;;;;;;5028325;28;20175;-35
2022/03/20 13:46:44;;;;;;;18.03;13.70;;;;;;;;;;5002520;28;20184;-36
2022/03/20 13:49:11;;;;;;;20.43;14.10;;;;;;;;;;5030759;28;20178;-35
2022/03/20 13:51:39;;;;;;;18.27;12.93;;;;;;;;;;5032101;28;20909;-36
2022/03/20 13:54:13;;;;;;;19.30;13.63;;;;;;;;;;5028096;28;20191;-36
2022/03/20 13:56:39;;;;;;;18.87;13.20;;;;;;;;;;5030767;28;21295;-35
2022/03/20 13:59:06;;;;;;;19.00;14.00;;;;;;;;;;5031756;28;20167;-36
2022/03/20 14:01:41;;;;;;;19.10;14.67;;;;;;;;;;5032875;28;20167;-35
2022/03/20 14:04:11;;;;;;;18.10;13.27;;;;;;;;;;5028370;28;20211;-36
2022/03/20 14:06:38;;;;;;;16.53;12.93;;;;;;;;;;5030813;28;20179;-36
2022/03/20 14:09:04;;;;;;;20.37;14.37;;;;;;;;;;5032203;28;20947;-35
2022/03/20 14:11:35;;;;;;;17.53;12.93;;;;;;;;;;5007839;28;20178;-36
2022/03/20 14:14:02;;;;;;;18.30;12.90;;;;;;;;;;5029361;28;20179;-36
2022/03/20 14:16:28;;;;;;;16.63;12.77;;;;;;;;;;5028848;28;20192;-36
2022/03/20 14:18:54;;;;;;;16.10;12.57;;;;;;;;;;5024218;28;20524;-35
2022/03/20 14:21:21;;;;;;;15.70;12.73;;;;;;;;;;5025042;28;20175;-35
2022/03/20 14:24:02;;;;;;;17.90;13.00;;;;;;;;;;5022447;28;20555;-36
2022/03/20 14:26:29;;;;;;;17.37;12.53;;;;;;;;;;5024004;28;20183;-36
2022/03/20 14:29:02;;;;;;;15.80;12.70;;;;;;;;;;5026404;28;20296;-35
2022/03/20 14:39:43;;;;;;;17.13;12.47;;;;;;;;;;5026059;28;20182;-36
2022/03/20 14:42:23;;;;;;;17.27;11.97;;;;;;;;;;5025835;28;20278;-35
2022/03/20 14:44:49;;;;;;;15.33;11.77;;;;;;;;;;5021672;28;20651;-36
2022/03/20 14:47:17;;;;;;;20.03;12.97;;;;;;;;;;5021027;28;20224;-35
2022/03/20 14:49:43;;;;;;;17.87;11.70;;;;;;;;;;5023529;28;20198;-36
2022/03/20 14:52:09;;;;;;;19.30;12.63;;;;;;;;;;5025202;28;20367;-35
2022/03/20 14:54:36;;;;;;;16.60;12.43;;;;;;;;;;5024224;28;20172;-35
2022/03/20 14:57:02;;;;;;;16.77;11.93;;;;;;;;;;5024090;28;20607;-35
2022/03/20 14:59:29;;;;;;;16.80;11.93;;;;;;;;;;5027526;28;20252;-35
2022/03/20 15:01:55;;;;;;;16.23;11.90;;;;;;;;;;5023951;28;20191;-35
2022/03/20 15:04:21;;;;;;;16.77;11.67;;;;;;;;;;5005349;28;20264;-35